Time;durP1;ratioP1;P1;durP2;ratioP2;P2;SDS_P1;SDS_P2;PMS_P1;PMS_P2;Temp;Humidity;BMP_temperature;BMP_pressure;BME280_temperature;BME280_humidity;BME280_pressure;Samples;Min_cycle;Max_cycle;Signal;HPM_P1;HPM_P2
2023/05/12 00:01:56;;;;;;;3.60;2.75;;;18.90;74.70;;;;;;5011714;28;20050;-33
2023/05/12 00:04:23;;;;;;;3.80;2.88;;;17.30;76.90;;;;;;5011572;28;20057;-33
2023/05/12 00:06:50;;;;;;;3.40;2.55;;;18.30;77.80;;;;;;5011893;28;20050;-33
2023/05/12 00:09:17;;;;;;;3.13;2.72;;;;;;;;;;5012122;28;20125;-33
2023/05/12 00:11:43;;;;;;;3.70;2.60;;;18.30;77.90;;;;;;5011713;28;20129;-33
2023/05/12 00:14:10;;;;;;;3.33;2.42;;;18.80;78.20;;;;;;5011791;28;20135;-33
2023/05/12 00:16:37;;;;;;;3.83;2.88;;;18.50;70.40;;;;;;5011354;28;20050;-33
2023/05/12 00:19:05;;;;;;;3.20;2.65;;;19.60;78.20;;;;;;5012176;28;20064;-33
2023/05/12 00:21:32;;;;;;;3.25;2.63;;;17.90;72.20;;;;;;5011732;28;20072;-33
2023/05/12 00:23:59;;;;;;;3.83;2.88;;;;;;;;;;5011607;28;20144;-32
2023/05/12 00:26:26;;;;;;;4.18;2.97;;;18.40;77.90;;;;;;5012066;28;20057;-33
2023/05/12 00:28:53;;;;;;;3.47;2.70;;;18.00;77.40;;;;;;5011565;28;20056;-33
2023/05/12 00:31:20;;;;;;;3.42;2.78;;;;;;;;;;5011501;28;20050;-33
2023/05/12 00:33:46;;;;;;;3.92;2.80;;;19.00;77.90;;;;;;5011455;28;20152;-33
2023/05/12 00:36:14;;;;;;;3.95;2.88;;;18.50;60.30;;;;;;5011144;28;20050;-32
2023/05/12 00:38:41;;;;;;;3.60;2.90;;;;;;;;;;5011784;28;20089;-32
2023/05/12 00:41:08;;;;;;;3.30;2.80;;;18.50;77.90;;;;;;5011929;28;20052;-33
2023/05/12 00:43:35;;;;;;;4.15;2.88;;;18.40;78.40;;;;;;5011333;28;20152;-33
2023/05/12 00:46:02;;;;;;;3.50;2.90;;;18.50;60.30;;;;;;5013330;28;20089;-32
2023/05/12 00:48:29;;;;;;;4.20;2.95;;;;;;;;;;4990103;28;20057;-33
2023/05/12 00:50:56;;;;;;;3.60;2.72;;;18.50;70.90;;;;;;5015374;28;20056;-33
2023/05/12 00:53:24;;;;;;;3.67;2.67;;;18.80;77.90;;;;;;5015191;28;20630;-33
2023/05/12 00:55:52;;;;;;;3.60;2.67;;;18.60;77.50;;;;;;4997392;28;20469;-33
2023/05/12 00:58:19;;;;;;;3.42;2.60;;;19.00;78.20;;;;;;5015359;28;20072;-33
2023/05/12 01:00:46;;;;;;;3.28;2.65;;;18.80;77.80;;;;;;5014916;28;20049;-33
2023/05/12 01:03:12;;;;;;;4.13;2.90;;;18.20;72.80;;;;;;5014811;28;20501;-33
2023/05/12 01:05:42;;;;;;;3.88;2.67;;;19.00;78.30;;;;;;5014844;28;20054;-33
2023/05/12 01:08:09;;;;;;;3.42;2.70;;;17.40;72.30;;;;;;5014818;28;20558;-32
2023/05/12 01:10:37;;;;;;;3.80;2.90;;;19.20;78.10;;;;;;5014926;28;20046;-33
2023/05/12 01:13:04;;;;;;;3.97;2.78;;;;;;;;;;5014478;28;20057;-33
2023/05/12 01:15:31;;;;;;;2.55;2.30;;;18.90;66.50;;;;;;5015083;28;20056;-33
2023/05/12 01:18:00;;;;;;;3.35;2.67;;;18.30;77.60;;;;;;5014810;28;20046;-33
2023/05/12 01:20:27;;;;;;;3.38;2.75;;;;;;;;;;5015113;28;20049;-33
2023/05/12 01:22:54;;;;;;;3.75;2.88;;;17.50;77.20;;;;;;5013987;28;20141;-33
2023/05/12 01:25:22;;;;;;;3.95;2.95;;;18.60;77.60;;;;;;5014865;28;20133;-33
2023/05/12 01:27:50;;;;;;;3.50;2.65;;;18.50;60.30;;;;;;5014847;28;20056;-33
2023/05/12 01:30:18;;;;;;;3.40;3.00;;;17.40;77.00;;;;;;5014572;28;20080;-33
2023/05/12 01:32:44;;;;;;;4.45;3.00;;;18.60;77.90;;;;;;5014289;28;20126;-33
2023/05/12 01:35:11;;;;;;;3.88;3.05;;;16.70;59.30;;;;;;5014500;28;20585;-33
2023/05/12 01:37:38;;;;;;;2.85;2.55;;;18.20;77.50;;;;;;5014029;28;20128;-33
2023/05/12 01:40:06;;;;;;;5.32;3.28;;;18.80;77.80;;;;;;5014269;28;20410;-33
2023/05/12 01:42:33;;;;;;;3.67;2.90;;;;;;;;;;5014106;28;20056;-33
2023/05/12 01:45:01;;;;;;;3.58;2.90;;;17.20;77.00;;;;;;5014263;28;20062;-33
2023/05/12 01:47:28;;;;;;;3.70;2.97;;;17.20;72.20;;;;;;5014044;28;20539;-33
2023/05/12 01:49:54;;;;;;;3.45;2.97;;;19.50;78.20;;;;;;5014160;28;20046;-33
2023/05/12 01:52:21;;;;;;;2.90;2.60;;;18.70;78.20;;;;;;5013990;28;20129;-33
2023/05/12 01:54:50;;;;;;;3.85;2.92;;;18.30;65.30;;;;;;5014338;28;20127;-33
2023/05/12 01:57:16;;;;;;;3.67;3.08;;;18.30;77.60;;;;;;5013837;28;20506;-33
2023/05/12 01:59:43;;;;;;;3.95;3.20;;;;;;;;;;4996586;28;20133;-33
2023/05/12 02:02:12;;;;;;;3.50;2.80;;;18.40;60.30;;;;;;5013189;28;20129;-29
2023/05/12 02:04:38;;;;;;;3.70;2.85;;;17.70;71.30;;;;;;5013893;28;20045;-33
2023/05/12 02:07:05;;;;;;;3.78;3.20;;;18.90;77.90;;;;;;5013694;28;20042;-33
2023/05/12 02:09:32;;;;;;;3.65;2.85;;;19.00;78.00;;;;;;5014178;28;20132;-33
2023/05/12 02:11:58;;;;;;;4.05;2.90;;;18.80;66.50;;;;;;5013779;28;20124;-33
2023/05/12 02:14:25;;;;;;;3.45;3.00;;;17.40;68.50;;;;;;5013331;28;20052;-33
2023/05/12 02:16:52;;;;;;;3.97;3.05;;;18.40;77.80;;;;;;5013634;28;20120;-33
2023/05/12 02:19:20;;;;;;;3.50;2.80;;;19.10;68.20;;;;;;5013716;28;20046;-33
2023/05/12 02:21:47;;;;;;;4.00;3.30;;;18.60;74.50;;;;;;5013838;28;20124;-33
2023/05/12 02:24:15;;;;;;;3.70;2.97;;;18.50;77.80;;;;;;4995871;28;20499;-33
2023/05/12 02:26:42;;;;;;;3.40;2.88;;;17.40;77.10;;;;;;5013818;28;20128;-33
2023/05/12 02:29:09;;;;;;;4.03;3.13;;;19.50;78.40;;;;;;5013389;28;20050;-33
2023/05/12 02:31:36;;;;;;;4.07;3.03;;;18.60;77.90;;;;;;5013452;28;20046;-33
2023/05/12 02:34:03;;;;;;;4.50;3.17;;;18.70;78.00;;;;;;5013433;28;20086;-33
2023/05/12 02:36:31;;;;;;;4.10;3.05;;;17.90;77.50;;;;;;5012957;28;20546;-33
2023/05/12 02:38:58;;;;;;;3.92;2.85;;;18.30;77.60;;;;;;5013250;28;20053;-33
2023/05/12 02:41:25;;;;;;;4.38;3.00;;;18.40;77.80;;;;;;5013498;28;20053;-33
2023/05/12 02:43:52;;;;;;;3.60;2.95;;;18.40;66.20;;;;;;5012971;28;20054;-33
2023/05/12 02:46:19;;;;;;;3.83;2.97;;;;;;;;;;5013101;28;20050;-32
2023/05/12 02:48:46;;;;;;;3.83;2.92;;;;;;;;;;5013279;28;20050;-33
2023/05/12 02:51:13;;;;;;;3.95;3.08;;;;;;;;;;5013013;28;20046;-33
2023/05/12 02:53:41;;;;;;;3.78;2.90;;;19.00;78.10;;;;;;5012775;28;20141;-33
2023/05/12 02:56:08;;;;;;;4.97;3.45;;;18.30;78.00;;;;;;5013087;28;20049;-33
2023/05/12 02:58:35;;;;;;;4.60;3.25;;;18.70;78.00;;;;;;5013012;28;20052;-33
2023/05/12 03:01:02;;;;;;;3.95;3.05;;;;;;;;;;5012707;28;20057;-33
2023/05/12 03:03:29;;;;;;;3.75;3.10;;;18.20;77.90;;;;;;5012600;28;20495;-33
2023/05/12 03:05:56;;;;;;;3.88;3.15;;;;;;;;;;5012866;28;20137;-33
2023/05/12 03:08:22;;;;;;;4.00;3.00;;;19.40;78.20;;;;;;5012238;28;20132;-33
2023/05/12 03:10:50;;;;;;;3.72;3.00;;;18.00;77.50;;;;;;5012922;28;20085;-33
2023/05/12 03:13:17;;;;;;;4.07;3.40;;;;;;;;;;5012368;28;20049;-33
2023/05/12 03:15:45;;;;;;;4.13;2.95;;;;;;;;;;4995304;28;20053;-33
2023/05/12 03:18:12;;;;;;;4.43;3.70;;;19.00;78.40;;;;;;5012727;28;20133;-33
2023/05/12 03:20:39;;;;;;;3.83;3.22;;;;;;;;;;5012776;28;20060;-33
2023/05/12 03:23:05;;;;;;;5.28;3.25;;;18.30;77.60;;;;;;5012118;28;20141;-33
2023/05/12 03:25:33;;;;;;;3.97;3.33;;;18.70;77.90;;;;;;5012176;28;20633;-33
2023/05/12 03:28:02;;;;;;;4.65;3.50;;;18.10;77.60;;;;;;5012644;28;20061;-33
2023/05/12 03:30:29;;;;;;;3.60;3.00;;;;;;;;;;5012389;28;20057;-33
2023/05/12 03:32:56;;;;;;;4.45;3.60;;;17.90;77.60;;;;;;5012220;28;20042;-33
2023/05/12 03:35:23;;;;;;;5.03;3.20;;;18.20;78.00;;;;;;5012043;28;20141;-33
2023/05/12 03:37:49;;;;;;;3.85;3.20;;;18.50;78.20;;;;;;5011946;28;20045;-33
2023/05/12 03:40:17;;;;;;;4.88;3.60;;;17.30;77.60;;;;;;5012051;28;20124;-33
2023/05/12 03:42:44;;;;;;;4.93;3.50;;;19.40;66.80;;;;;;5012152;28;20096;-33
2023/05/12 03:45:12;;;;;;;4.63;3.50;;;18.30;60.30;;;;;;5012298;28;20042;-33
2023/05/12 03:47:40;;;;;;;4.47;3.63;;;;;;;;;;5012138;28;20120;-32
2023/05/12 03:50:07;;;;;;;4.05;3.17;;;19.00;78.50;;;;;;5012502;28;20072;-33
2023/05/12 03:52:37;;;;;;;4.07;3.28;;;;;;;;;;5011853;28;20081;-33
2023/05/12 03:55:04;;;;;;;4.53;3.60;;;18.10;60.20;;;;;;5011775;28;20053;-33
2023/05/12 03:57:31;;;;;;;3.88;3.47;;;;;;;;;;5011852;28;20056;-33
2023/05/12 03:59:58;;;;;;;4.40;3.40;;;;;;;;;;5011998;28;20046;-33
2023/05/12 04:02:26;;;;;;;4.82;3.60;;;17.20;77.30;;;;;;5011691;28;20133;-33
2023/05/12 04:04:53;;;;;;;5.25;3.80;;;18.10;77.70;;;;;;5012248;28;20046;-33
2023/05/12 04:07:20;;;;;;;4.45;3.78;;;18.60;64.30;;;;;;5011878;28;20045;-33
2023/05/12 04:09:47;;;;;;;4.55;3.70;;;18.40;78.10;;;;;;5011885;28;20049;-33
2023/05/12 04:12:14;;;;;;;5.50;3.95;;;;;;;;;;5011884;28;20050;-33
2023/05/12 04:14:40;;;;;;;4.25;3.80;;;18.20;78.10;;;;;;5011842;28;20064;-33
2023/05/12 04:17:07;;;;;;;4.90;3.85;;;;;;;;;;5012214;28;20046;-33
2023/05/12 04:19:36;;;;;;;4.95;3.97;;;18.20;60.20;;;;;;5011980;28;20103;-33
2023/05/12 04:22:03;;;;;;;4.45;3.58;;;;;;;;;;5015431;28;20143;-33
2023/05/12 04:24:30;;;;;;;4.03;3.60;;;17.90;77.60;;;;;;5015601;28;20049;-33
2023/05/12 04:26:57;;;;;;;4.68;3.80;;;18.60;60.40;;;;;;5015936;28;20104;-32
2023/05/12 04:29:24;;;;;;;4.15;3.70;;;18.10;78.00;;;;;;4998266;28;20137;-33
2023/05/12 04:31:51;;;;;;;5.07;3.75;;;;;;;;;;5015645;28;20507;-32
2023/05/12 04:34:17;;;;;;;5.35;3.97;;;18.40;78.10;;;;;;5015372;28;20434;-33
2023/05/12 04:36:45;;;;;;;4.60;3.65;;;19.20;60.80;;;;;;5015341;28;20050;-33
2023/05/12 04:39:12;;;;;;;4.78;4.20;;;18.30;78.30;;;;;;5015241;28;20558;-33
2023/05/12 04:41:39;;;;;;;4.68;3.90;;;18.00;70.00;;;;;;5015551;28;20097;-33
2023/05/12 04:44:06;;;;;;;4.57;3.65;;;17.60;77.50;;;;;;5015253;28;20145;-33
2023/05/12 04:46:33;;;;;;;5.35;3.97;;;;;;;;;;5015274;28;20149;-33
2023/05/12 04:49:00;;;;;;;5.40;3.90;;;18.50;78.30;;;;;;5015464;28;20053;-33
2023/05/12 04:51:27;;;;;;;5.72;4.22;;;;;;;;;;5015430;28;20050;-32
2023/05/12 04:53:55;;;;;;;4.45;3.63;;;17.90;78.10;;;;;;5014513;28;20130;-33
2023/05/12 04:56:22;;;;;;;5.78;4.50;;;18.30;74.20;;;;;;4997718;28;20497;-33
2023/05/12 04:58:49;;;;;;;4.68;3.92;;;17.90;69.10;;;;;;5015289;28;20128;-33
2023/05/12 05:01:16;;;;;;;5.55;4.30;;;18.20;63.40;;;;;;5015433;28;20063;-32
2023/05/12 05:03:43;;;;;;;5.53;4.38;;;;;;;;;;5014892;28;20077;-33
2023/05/12 05:06:10;;;;;;;4.95;4.15;;;;;;;;;;5015257;28;20138;-32
2023/05/12 05:08:36;;;;;;;4.80;3.90;;;17.80;73.90;;;;;;5014961;28;20056;-33
2023/05/12 05:11:05;;;;;;;5.18;4.30;;;17.80;77.90;;;;;;5014834;28;20137;-33
2023/05/12 05:13:31;;;;;;;4.60;3.90;;;18.20;78.20;;;;;;5014701;28;20503;-33
2023/05/12 05:15:58;;;;;;;4.90;4.25;;;;;;;;;;5014963;28;20052;-33
2023/05/12 05:18:25;;;;;;;6.20;4.20;;;18.50;69.30;;;;;;5014999;28;20049;-33
2023/05/12 05:20:53;;;;;;;4.95;4.10;;;17.80;66.60;;;;;;5014607;28;20054;-33
2023/05/12 05:23:20;;;;;;;5.40;4.00;;;18.10;77.90;;;;;;5014472;28;20050;-33
2023/05/12 05:25:46;;;;;;;4.40;3.90;;;18.30;67.40;;;;;;5014398;28;20042;-33
2023/05/12 05:28:15;;;;;;;4.70;4.10;;;18.30;78.30;;;;;;5015026;28;20129;-33
2023/05/12 05:30:42;;;;;;;5.20;4.10;;;;;;;;;;5014245;28;20046;-31
2023/05/12 05:33:11;;;;;;;4.80;4.20;;;17.90;78.00;;;;;;5014405;28;20050;-33
2023/05/12 05:35:38;;;;;;;5.00;4.28;;;18.80;78.70;;;;;;5014504;28;20042;-33
2023/05/12 05:38:05;;;;;;;5.20;4.28;;;;;;;;;;5014240;28;20129;-31
2023/05/12 05:40:32;;;;;;;5.25;4.18;;;;;;;;;;5014333;28;20058;-33
2023/05/12 05:42:59;;;;;;;4.95;4.30;;;;;;;;;;5014287;28;20072;-32
2023/05/12 05:45:27;;;;;;;5.22;4.32;;;18.40;78.40;;;;;;5014277;28;20125;-33
2023/05/12 05:47:54;;;;;;;5.10;4.20;;;18.00;78.20;;;;;;5014291;28;20129;-33
2023/05/12 05:50:20;;;;;;;4.60;4.07;;;17.90;78.20;;;;;;5006245;28;20124;-33
2023/05/12 05:52:47;;;;;;;4.75;4.18;;;;;;;;;;5013648;28;20053;-33
2023/05/12 05:55:14;;;;;;;5.25;4.20;;;18.70;73.70;;;;;;5014040;28;20128;-33
2023/05/12 05:57:41;;;;;;;5.05;4.18;;;18.20;78.20;;;;;;5010978;28;20117;-33
2023/05/12 06:00:09;;;;;;;4.40;3.97;;;18.10;78.30;;;;;;5003951;28;20050;-33
2023/05/12 06:02:37;;;;;;;5.20;4.13;;;18.20;77.20;;;;;;4994151;28;20062;-33
2023/05/12 06:05:05;;;;;;;5.20;3.80;;;18.10;60.30;;;;;;4994265;28;20072;-33
2023/05/12 06:07:32;;;;;;;4.65;3.60;;;18.30;78.00;;;;;;4994752;28;20059;-33
2023/05/12 06:09:59;;;;;;;5.57;4.07;;;18.30;78.40;;;;;;4998815;28;20068;-33
2023/05/12 06:12:26;;;;;;;4.50;3.50;;;18.10;63.00;;;;;;5013603;28;20046;-33
2023/05/12 06:14:53;;;;;;;4.97;3.40;;;;;;;;;;5014005;28;20129;-33
2023/05/12 06:17:20;;;;;;;5.18;3.47;;;;;;;;;;5013946;28;20054;-32
2023/05/12 06:19:49;;;;;;;4.80;4.05;;;19.50;78.40;;;;;;5013518;28;20050;-33
2023/05/12 06:22:16;;;;;;;4.55;3.90;;;;;;;;;;5013592;28;20050;-32
2023/05/12 06:24:43;;;;;;;4.07;3.13;;;18.20;77.70;;;;;;5013598;28;20125;-33
2023/05/12 06:27:09;;;;;;;4.00;3.58;;;17.80;77.10;;;;;;5013228;28;20129;-33
2023/05/12 06:29:36;;;;;;;5.45;3.17;;;18.80;62.50;;;;;;5013589;28;20107;-33
2023/05/12 06:32:03;;;;;;;3.40;3.10;;;;;;;;;;5013500;28;20474;-33
2023/05/12 06:34:30;;;;;;;4.70;3.03;;;;;;;;;;5013374;28;20133;-31
2023/05/12 06:36:58;;;;;;;4.45;3.13;;;19.40;63.70;;;;;;5010043;28;20122;-33
2023/05/12 06:39:25;;;;;;;3.17;2.88;;;19.50;76.90;;;;;;5013181;28;20046;-33
2023/05/12 06:41:52;;;;;;;5.68;4.05;;;18.90;76.70;;;;;;5010238;28;20121;-33
2023/05/12 06:44:19;;;;;;;4.80;3.30;;;19.60;65.70;;;;;;5011438;28;20077;-33
2023/05/12 06:46:46;;;;;;;4.78;4.20;;;20.10;77.00;;;;;;5012850;28;20495;-33
2023/05/12 06:49:13;;;;;;;5.45;4.95;;;;;;;;;;5011965;28;20064;-31
2023/05/12 06:51:40;;;;;;;6.32;4.63;;;19.70;76.00;;;;;;5013507;28;20056;-33
2023/05/12 06:54:08;;;;;;;5.30;4.53;;;19.60;58.50;;;;;;5011567;28;20521;-32
2023/05/12 06:56:35;;;;;;;6.13;4.30;;;;;;;;;;5003956;28;20133;-33
2023/05/12 06:59:03;;;;;;;6.63;4.55;;;19.70;75.50;;;;;;5013056;28;20499;-32
2023/05/12 07:01:30;;;;;;;7.40;4.00;;;20.20;66.90;;;;;;5013023;28;20514;-33
2023/05/12 07:03:56;;;;;;;5.03;4.13;;;21.00;76.00;;;;;;5012908;28;20157;-33
2023/05/12 07:06:24;;;;;;;6.78;3.97;;;;;;;;;;5013016;28;20562;-32
2023/05/12 07:08:50;;;;;;;5.47;3.92;;;19.60;75.10;;;;;;5012883;28;20054;-33
2023/05/12 07:11:19;;;;;;;4.93;4.07;;;19.90;75.40;;;;;;5012415;28;20052;-33
2023/05/12 07:13:46;;;;;;;4.53;3.40;;;20.20;75.40;;;;;;5012430;28;20116;-33
2023/05/12 07:16:13;;;;;;;4.72;3.90;;;20.10;75.30;;;;;;5013068;28;20079;-33
2023/05/12 07:18:40;;;;;;;3.90;3.47;;;;;;;;;;5012567;28;20487;-33
2023/05/12 07:21:07;;;;;;;3.83;3.40;;;;;;;;;;5012769;28;20476;-33
2023/05/12 07:23:34;;;;;;;4.45;3.85;;;20.60;60.80;;;;;;5012380;28;20100;-33
2023/05/12 07:26:01;;;;;;;5.13;3.30;;;19.50;74.30;;;;;;5012470;28;20080;-33
2023/05/12 07:28:31;;;;;;;4.07;3.67;;;20.10;74.50;;;;;;5012031;28;20045;-33
2023/05/12 07:30:58;;;;;;;4.18;3.35;;;20.20;74.80;;;;;;5010773;28;20113;-33
2023/05/12 07:33:24;;;;;;;3.50;3.20;;;20.20;68.90;;;;;;4994330;28;20100;-33
2023/05/12 07:35:51;;;;;;;4.82;3.22;;;20.30;65.30;;;;;;5010940;28;20042;-33
2023/05/12 07:38:18;;;;;;;4.72;3.50;;;20.50;74.60;;;;;;5011719;28;20124;-33
2023/05/12 07:40:45;;;;;;;3.58;2.92;;;20.30;62.60;;;;;;5012065;28;20568;-33
2023/05/12 07:43:12;;;;;;;4.22;3.00;;;19.70;74.50;;;;;;5011388;28;20077;-33
2023/05/12 07:45:40;;;;;;;3.50;3.10;;;20.20;57.40;;;;;;5012088;28;20128;-33
2023/05/12 07:48:07;;;;;;;3.00;2.70;;;20.70;72.70;;;;;;5009435;28;20128;-33
2023/05/12 07:50:34;;;;;;;4.68;3.08;;;21.00;74.60;;;;;;5009837;28;20046;-33
2023/05/12 07:53:00;;;;;;;3.70;3.25;;;20.20;68.60;;;;;;5010138;28;20049;-33
2023/05/12 07:55:27;;;;;;;3.47;3.10;;;20.00;66.80;;;;;;5008817;28;20070;-33
2023/05/12 07:57:54;;;;;;;3.08;2.72;;;20.20;75.00;;;;;;5011311;28;20130;-33
2023/05/12 08:00:21;;;;;;;3.40;3.10;;;;;;;;;;5011395;28;20730;-33
2023/05/12 08:02:49;;;;;;;3.58;3.20;;;21.40;74.80;;;;;;5008929;28;20052;-33
2023/05/12 08:05:16;;;;;;;3.20;2.90;;;21.30;74.80;;;;;;5011958;28;20120;-33
2023/05/12 08:07:43;;;;;;;3.67;2.85;;;19.80;74.90;;;;;;5011152;28;20507;-33
2023/05/12 08:10:10;;;;;;;3.35;2.95;;;19.20;70.60;;;;;;5010720;28;20061;-33
2023/05/12 08:12:37;;;;;;;3.13;2.83;;;20.40;74.70;;;;;;5009906;28;20606;-33
2023/05/12 08:15:04;;;;;;;2.83;2.55;;;20.20;57.30;;;;;;5011973;28;20136;-33
2023/05/12 08:17:30;;;;;;;3.83;2.90;;;19.50;73.80;;;;;;5009266;28;20046;-33
2023/05/12 08:19:58;;;;;;;3.38;2.92;;;19.60;74.20;;;;;;5006578;28;20068;-33
2023/05/12 08:22:25;;;;;;;3.78;3.00;;;19.90;74.10;;;;;;4991995;28;20134;-33
2023/05/12 08:24:52;;;;;;;3.88;3.08;;;20.30;69.70;;;;;;4999079;28;20126;-33
2023/05/12 08:27:19;;;;;;;2.88;2.63;;;20.20;74.40;;;;;;5011827;28;20076;-33
2023/05/12 08:29:46;;;;;;;4.63;2.90;;;20.60;70.40;;;;;;5010073;28;20461;-32
2023/05/12 08:32:13;;;;;;;3.00;2.70;;;20.00;75.00;;;;;;5008990;28;20129;-33
2023/05/12 08:34:40;;;;;;;3.00;2.70;;;19.30;69.40;;;;;;5011405;28;20613;-33
2023/05/12 08:37:08;;;;;;;3.22;2.67;;;20.00;74.50;;;;;;5005330;28;20046;-33
2023/05/12 08:39:35;;;;;;;4.55;3.00;;;20.70;75.40;;;;;;5011118;28;20121;-33
2023/05/12 08:42:09;;;;;;;3.80;3.08;;;19.80;68.80;;;;;;5011388;28;20134;-33
2023/05/12 08:44:36;;;;;;;3.28;2.72;;;20.10;74.30;;;;;;5012086;28;20630;-33
2023/05/12 08:47:03;;;;;;;3.30;3.00;;;19.20;62.40;;;;;;5011051;28;20133;-33
2023/05/12 08:49:31;;;;;;;2.78;2.58;;;20.10;73.30;;;;;;5011626;28;20465;-33
2023/05/12 08:51:57;;;;;;;3.00;2.70;;;20.50;75.10;;;;;;5011267;28;20045;-33
2023/05/12 08:54:26;;;;;;;5.38;2.88;;;21.20;75.10;;;;;;5011139;28;20086;-33
2023/05/12 08:56:53;;;;;;;3.22;2.70;;;20.00;64.60;;;;;;5011741;28;20064;-33
2023/05/12 08:59:19;;;;;;;4.82;2.78;;;20.80;74.80;;;;;;4993837;28;20053;-33
2023/05/12 09:01:47;;;;;;;3.88;2.78;;;;;;;;;;5011519;28;20132;-32
2023/05/12 09:04:14;;;;;;;2.95;2.65;;;20.20;75.40;;;;;;5011023;28;20129;-33
2023/05/12 09:06:41;;;;;;;3.00;2.70;;;19.50;74.90;;;;;;5013100;28;20646;-33
2023/05/12 09:09:07;;;;;;;3.00;2.70;;;20.10;67.10;;;;;;5015261;28;20129;-33
2023/05/12 09:11:35;;;;;;;3.20;2.83;;;19.90;74.40;;;;;;5015061;28;20053;-33
2023/05/12 09:14:03;;;;;;;3.10;2.80;;;19.80;75.20;;;;;;4996938;28;20042;-33
2023/05/12 09:16:31;;;;;;;3.15;2.78;;;19.70;62.30;;;;;;5007364;28;20068;-33
2023/05/12 09:18:58;;;;;;;3.17;2.88;;;20.10;57.50;;;;;;5014881;28;20046;-33
2023/05/12 09:21:26;;;;;;;3.10;2.72;;;;;;;;;;5014913;28;20130;-33
2023/05/12 09:23:57;;;;;;;3.33;2.90;;;20.10;75.00;;;;;;5014296;28;20046;-33
2023/05/12 09:26:24;;;;;;;2.88;2.60;;;20.00;60.20;;;;;;5014847;28;20141;-33
2023/05/12 09:28:54;;;;;;;2.85;2.60;;;19.90;73.90;;;;;;5014723;28;20054;-33
2023/05/12 09:31:22;;;;;;;3.20;2.83;;;20.20;73.90;;;;;;5015026;28;20065;-33
2023/05/12 09:33:49;;;;;;;3.38;2.80;;;19.80;73.50;;;;;;5014395;28;20073;-33
2023/05/12 09:36:18;;;;;;;3.10;2.80;;;20.00;73.70;;;;;;5014324;28;20042;-33
2023/05/12 09:38:45;;;;;;;4.38;2.92;;;20.30;73.80;;;;;;5014691;28;20057;-33
2023/05/12 09:41:12;;;;;;;3.10;2.80;;;;;;;;;;5014685;28;20168;-32
2023/05/12 09:43:44;;;;;;;3.03;2.60;;;20.40;74.40;;;;;;5006854;28;20046;-33
2023/05/12 09:46:13;;;;;;;2.88;2.67;;;19.90;74.10;;;;;;5013929;28;20081;-33
2023/05/12 09:48:40;;;;;;;3.00;2.70;;;20.50;74.00;;;;;;5009716;28;20069;-33
2023/05/12 09:51:09;;;;;;;4.28;2.90;;;20.70;68.70;;;;;;5000873;28;20443;-33
2023/05/12 09:53:41;;;;;;;3.17;2.88;;;21.00;73.60;;;;;;5004658;28;20670;-33
2023/05/12 09:56:08;;;;;;;3.17;2.60;;;20.30;73.10;;;;;;5001737;28;20053;-33
2023/05/12 09:58:35;;;;;;;2.67;2.47;;;20.20;64.40;;;;;;5010719;28;20057;-33
2023/05/12 10:01:02;;;;;;;2.85;2.45;;;20.40;73.50;;;;;;5008937;28;20057;-33
2023/05/12 10:03:30;;;;;;;3.17;2.88;;;19.90;64.70;;;;;;5014170;28;20049;-33
2023/05/12 10:05:58;;;;;;;3.10;2.80;;;20.50;67.30;;;;;;5014108;28;20133;-33
2023/05/12 10:08:25;;;;;;;3.05;2.60;;;20.30;73.30;;;;;;5014291;28;20076;-33
2023/05/12 10:10:52;;;;;;;2.80;2.45;;;;;;;;;;5013965;28;20145;-33
2023/05/12 10:13:19;;;;;;;2.83;2.50;;;;;;;;;;5013837;28;20469;-32
2023/05/12 10:15:46;;;;;;;2.90;2.65;;;20.50;73.50;;;;;;5013648;28;20128;-33
2023/05/12 10:18:13;;;;;;;2.50;2.30;;;;;;;;;;5013553;28;20149;-32
2023/05/12 10:20:42;;;;;;;2.88;2.60;;;21.00;73.60;;;;;;4995222;28;20137;-33
2023/05/12 10:23:11;;;;;;;3.05;2.75;;;20.90;73.50;;;;;;5011586;28;20144;-33
2023/05/12 10:25:38;;;;;;;2.88;2.35;;;;;;;;;;5011479;28;20068;-32
2023/05/12 10:28:05;;;;;;;4.93;2.28;;;20.50;73.20;;;;;;5011607;28;20057;-33
2023/05/12 10:30:32;;;;;;;2.60;2.40;;;;;;;;;;5010198;28;20551;-32
2023/05/12 10:33:00;;;;;;;2.70;2.47;;;20.60;62.90;;;;;;5011827;28;20494;-33
2023/05/12 10:35:36;;;;;;;2.40;2.20;;;20.60;74.10;;;;;;5013216;28;20096;-33
2023/05/12 10:38:07;;;;;;;2.53;2.33;;;20.20;73.10;;;;;;5007641;28;20054;-33
2023/05/12 10:40:34;;;;;;;2.40;2.20;;;;;;;;;;5012004;28;20058;-32
2023/05/12 10:43:01;;;;;;;4.35;2.30;;;20.30;73.90;;;;;;5012217;28;20499;-33
2023/05/12 10:45:29;;;;;;;2.90;2.00;;;;;;;;;;5012995;28;20050;-32
2023/05/12 10:48:05;;;;;;;2.47;2.28;;;20.70;56.70;;;;;;5011663;28;20045;-32
2023/05/12 10:50:33;;;;;;;2.30;2.08;;;;;;;;;;5011707;28;20046;-32
2023/05/12 10:53:00;;;;;;;2.55;2.35;;;;;;;;;;5001500;28;20125;-33
2023/05/12 10:55:36;;;;;;;2.80;2.50;;;21.10;66.10;;;;;;5011397;28;20275;-33
2023/05/12 10:58:07;;;;;;;2.40;2.20;;;20.80;56.60;;;;;;5011330;28;20064;-33
2023/05/12 11:00:42;;;;;;;2.30;2.10;;;21.80;65.10;;;;;;4991542;28;20051;-33
2023/05/12 11:03:12;;;;;;;3.22;2.28;;;20.80;56.60;;;;;;4991471;28;20133;-31
2023/05/12 11:05:39;;;;;;;2.50;2.30;;;;;;;;;;4991782;28;20046;-32
2023/05/12 11:08:06;;;;;;;2.67;2.35;;;20.90;73.70;;;;;;4992556;28;20057;-33
2023/05/12 11:10:34;;;;;;;4.05;2.30;;;20.90;74.20;;;;;;4993403;28;20129;-33
2023/05/12 11:13:01;;;;;;;2.35;2.15;;;;;;;;;;4992815;28;20050;-33
2023/05/12 11:15:29;;;;;;;2.63;2.20;;;;;;;;;;4994275;28;20251;-32
2023/05/12 11:17:56;;;;;;;2.97;2.10;;;;;;;;;;4993354;28;20085;-33
2023/05/12 11:20:23;;;;;;;2.38;2.17;;;20.30;72.80;;;;;;4993079;28;20085;-33
2023/05/12 11:22:50;;;;;;;2.40;2.20;;;;;;;;;;4995669;28;20050;-33
2023/05/12 11:25:17;;;;;;;3.53;2.10;;;;;;;;;;4998707;28;20092;-32
2023/05/12 11:27:49;;;;;;;2.40;2.20;;;20.80;63.00;;;;;;5005076;28;20137;-33
2023/05/12 11:30:16;;;;;;;2.42;2.22;;;20.70;70.30;;;;;;5011445;28;20145;-33
2023/05/12 11:32:43;;;;;;;2.30;2.10;;;20.30;71.30;;;;;;5005984;28;20132;-33
2023/05/12 11:35:10;;;;;;;2.20;2.00;;;20.90;56.70;;;;;;5001857;28;20125;-31
2023/05/12 11:37:38;;;;;;;2.45;2.10;;;;;;;;;;5006028;28;20050;-33
2023/05/12 11:40:15;;;;;;;2.42;2.20;;;20.10;73.20;;;;;;5005902;28;20500;-33
2023/05/12 11:42:47;;;;;;;2.22;2.03;;;;;;;;;;5006899;28;20049;-32
2023/05/12 11:45:22;;;;;;;2.35;2.08;;;20.90;73.50;;;;;;5012616;28;20073;-33
2023/05/12 11:47:48;;;;;;;;;;;21.00;57.30;;;;;;5012926;28;20470;-33
2023/05/12 11:50:21;;;;;;;2.97;2.10;;;20.90;56.80;;;;;;5012183;28;19921;-33
2023/05/12 11:52:48;;;;;;;2.65;2.13;;;21.00;73.60;;;;;;5012074;28;20057;-33
2023/05/12 11:55:19;;;;;;;2.30;2.10;;;20.50;65.80;;;;;;5012498;28;20072;-33
2023/05/12 11:57:56;;;;;;;2.55;2.13;;;20.90;56.70;;;;;;5012235;28;20121;-32
2023/05/12 12:00:29;;;;;;;2.40;2.10;;;21.60;57.10;;;;;;5012340;28;20050;-32
2023/05/12 12:03:08;;;;;;;3.50;2.08;;;21.40;74.10;;;;;;5012051;28;20088;-33
2023/05/12 12:05:35;;;;;;;2.17;1.95;;;20.10;72.60;;;;;;5012210;28;20559;-33
2023/05/12 12:08:06;;;;;;;2.72;2.20;;;21.00;56.70;;;;;;5011762;28;20041;-30
2023/05/12 12:10:33;;;;;;;2.42;2.22;;;21.10;60.70;;;;;;5009241;28;20049;-33
2023/05/12 12:13:00;;;;;;;2.20;2.00;;;20.80;73.20;;;;;;4999921;28;20048;-33
2023/05/12 12:15:28;;;;;;;2.22;2.03;;;20.90;56.60;;;;;;4992476;28;20134;-32
2023/05/12 12:17:55;;;;;;;2.20;2.00;;;;;;;;;;4992509;28;20519;-32
2023/05/12 12:20:23;;;;;;;2.85;2.03;;;22.20;73.60;;;;;;4996072;28;20383;-33
2023/05/12 12:22:50;;;;;;;2.60;2.08;;;21.00;73.20;;;;;;5011157;28;20115;-33
2023/05/12 12:25:18;;;;;;;2.58;2.10;;;;;;;;;;5010406;28;20041;-32
2023/05/12 12:27:45;;;;;;;2.60;1.95;;;20.70;73.70;;;;;;4992431;28;20511;-33
2023/05/12 12:30:13;;;;;;;2.95;2.10;;;21.60;57.50;;;;;;4992245;28;20458;-32
2023/05/12 12:32:41;;;;;;;2.30;2.00;;;21.30;59.30;;;;;;4991870;28;20054;-32
2023/05/12 12:35:08;;;;;;;2.83;2.10;;;22.10;66.50;;;;;;4991913;28;20129;-33
2023/05/12 12:37:35;;;;;;;2.40;2.15;;;20.70;73.40;;;;;;5006759;28;20410;-33
2023/05/12 12:40:06;;;;;;;2.50;1.90;;;;;;;;;;5011664;28;20133;-32
2023/05/12 12:42:34;;;;;;;5.90;2.00;;;21.30;73.30;;;;;;5015160;28;20049;-33
2023/05/12 12:45:02;;;;;;;3.13;2.03;;;20.70;73.10;;;;;;5013208;28;20042;-33
2023/05/12 12:47:29;;;;;;;2.65;1.92;;;20.90;73.50;;;;;;4994560;28;20084;-33
2023/05/12 12:49:57;;;;;;;3.17;2.20;;;21.00;73.30;;;;;;5004192;28;20093;-33
2023/05/12 12:52:24;;;;;;;3.42;2.20;;;;;;;;;;4992503;28;20514;-32
2023/05/12 12:54:51;;;;;;;2.55;2.30;;;20.40;73.20;;;;;;4995542;28;20042;-33
2023/05/12 12:57:18;;;;;;;5.75;2.30;;;21.70;74.80;;;;;;4995764;28;20105;-33
2023/05/12 12:59:45;;;;;;;2.55;2.00;;;21.20;65.80;;;;;;5000296;28;20050;-33
2023/05/12 13:02:12;;;;;;;7.95;2.50;;;21.50;73.80;;;;;;5004250;28;20081;-33
2023/05/12 13:04:39;;;;;;;2.95;2.10;;;22.10;74.00;;;;;;5004483;28;20456;-33
2023/05/12 13:07:08;;;;;;;3.38;2.17;;;21.10;74.00;;;;;;5007764;28;20056;-33
2023/05/12 13:09:36;;;;;;;2.40;2.20;;;;;;;;;;4997035;28;20058;-32
2023/05/12 13:12:03;;;;;;;2.72;2.05;;;;;;;;;;5014756;28;20124;-32